Portada
METAR-TAF:

METAR-TAF

Aeropuertos :

Aeropuerto de Bari-Palese

Bari, Italia

latitud: 41-08N, longitud: 016-47E, altitud: 34 m

Observación

El informe se hizo hace 18 minutos, a las 08:50 UTC
Viento 5 kt del oeste-noroeste, variando entre oeste-suroeste y norte
Temperatura 11°C
Humedad 62%
Presión 1026 hPa
Visibilidad 10 km o más
sin nubes por debajo de 1500 m y sin presencia de cumulonimbus.

METAR: LIBD 070850Z 30005KT 250V360 CAVOK 11/04 Q1026

Hora: 10:08 (09:08 UTC)

Pronóstico

El informe se hizo hace 4 horas y 8 minutos, a las 05:00 UTC
Pronóstico válido del 07 a las 06 UTC al 08 a las 06 UTC
Viento 5 kt con dirección variable
Visibilidad 10 km o más
Escasas nubes a una altura de 4000 ft

TAF: LIBD 070500Z 0706/0806 VRB05KT 9999 FEW040

Observaciones y pronósticos meteorológicos de más de 4000 aeropuertos (mensajes METAR y TAF).

Los puntos amarillos y rojos representan las estaciones disponibles.

Ponga el ratón en el punto deseado para ver el nombre de la estación.

Haga clic para ver las observaciones y los pronósticos meteorológicos.

Para cambiar el mapa : haga clic en los botones verdes con una cruz de color negro para hacer un zoom, en el botón verde con un guión para alejar o en las flechas verdes para mapas adyacentes.


METAR-TAF: